createdAt,value
2022-12-12T00:02:44.398Z,32.83
2022-12-12T00:07:48.793Z,32.63
2022-12-12T00:12:51.700Z,31.50
2022-12-12T00:17:54.452Z,33.45
2022-12-12T00:22:58.596Z,33.13
2022-12-12T00:28:02.563Z,31.63
2022-12-12T00:33:05.292Z,33.22
2022-12-12T00:38:09.536Z,32.70
2022-12-12T00:43:12.648Z,33.72
2022-12-12T00:48:15.380Z,34.53
2022-12-12T00:53:19.712Z,33.05
2022-12-12T00:58:22.479Z,33.40
2022-12-12T01:03:25.278Z,30.40
2022-12-12T01:08:29.724Z,32.05
2022-12-12T01:13:32.536Z,32.10
2022-12-12T01:18:35.561Z,32.95
2022-12-12T01:23:39.691Z,30.73
2022-12-12T01:28:43.706Z,30.45
2022-12-12T01:33:46.984Z,29.48
2022-12-12T01:38:54.338Z,29.48
2022-12-12T01:43:58.099Z,31.00
2022-12-12T01:49:04.937Z,33.00
2022-12-12T01:59:16.628Z,31.20
2022-12-12T02:04:20.056Z,34.13
2022-12-12T02:09:26.334Z,33.80
2022-12-12T02:14:32.574Z,29.42
2022-12-12T02:20:30.016Z,50.20
2022-12-12T02:26:10.325Z,29.70
2022-12-12T02:31:21.088Z,34.55
2022-12-12T02:36:33.564Z,31.00
2022-12-12T02:41:41.893Z,28.75
2022-12-12T02:46:52.448Z,32.00
2022-12-12T02:51:56.894Z,35.08
2022-12-12T02:57:01.259Z,30.85
2022-12-12T03:02:45.658Z,31.83
2022-12-12T03:07:58.303Z,30.67
2022-12-12T03:13:12.341Z,29.95
2022-12-12T03:18:25.966Z,28.77
2022-12-12T03:23:33.710Z,28.60
2022-12-12T03:28:40.639Z,27.98
2022-12-12T03:33:47.613Z,26.73
2022-12-12T03:38:57.287Z,26.73
2022-12-12T03:44:06.740Z,27.38
2022-12-12T03:49:16.837Z,23.80
2022-12-12T03:54:26.546Z,25.10
2022-12-12T03:59:33.662Z,23.35
2022-12-12T04:04:44.960Z,21.27
2022-12-12T04:10:05.712Z,20.58
2022-12-12T04:15:46.982Z,21.48
2022-12-12T04:21:21.767Z,21.80
2022-12-12T04:26:41.921Z,24.38
2022-12-12T04:31:51.479Z,25.10
2022-12-12T04:36:56.010Z,22.85
2022-12-12T04:42:02.045Z,16.60
2022-12-12T04:47:08.355Z,18.70
2022-12-12T04:52:15.261Z,16.67
2022-12-12T05:02:31.821Z,16.45
2022-12-12T05:07:40.456Z,16.58
2022-12-12T05:12:45.597Z,17.17
2022-12-12T05:17:50.959Z,16.05
2022-12-12T05:22:55.084Z,16.35
2022-12-12T05:27:58.226Z,17.25
2022-12-12T05:33:01.178Z,18.98
2022-12-12T05:38:05.341Z,17.05
2022-12-12T05:43:08.109Z,20.38
2022-12-12T05:48:10.929Z,16.77
2022-12-12T05:53:15.316Z,15.90
2022-12-12T05:58:18.214Z,16.30
2022-12-12T06:03:21.590Z,16.27
2022-12-12T06:08:25.847Z,18.67
2022-12-12T06:13:28.795Z,17.45
2022-12-12T06:18:31.826Z,17.00
2022-12-12T06:23:38.266Z,16.38
2022-12-12T06:28:41.301Z,16.85
2022-12-12T06:33:44.316Z,16.92
2022-12-12T06:38:48.541Z,18.98
2022-12-12T06:43:51.611Z,20.63
2022-12-12T06:48:56.409Z,19.90
2022-12-12T06:54:00.820Z,18.20
2022-12-12T06:59:03.681Z,19.55
2022-12-12T07:04:07.126Z,20.02
2022-12-12T07:09:11.997Z,28.33
2022-12-12T07:14:14.812Z,18.73
2022-12-12T07:19:17.898Z,17.55
2022-12-12T07:24:23.815Z,19.20
2022-12-12T07:29:27.328Z,24.15
2022-12-12T07:34:30.892Z,19.25
2022-12-12T07:39:37.162Z,18.98
2022-12-12T07:44:40.238Z,16.70
2022-12-12T07:49:43.095Z,14.95
2022-12-12T07:54:48.422Z,17.70
2022-12-12T07:59:54.115Z,18.23
2022-12-12T08:04:58.001Z,16.60
2022-12-12T08:10:03.405Z,19.38
2022-12-12T08:15:10.506Z,16.38
2022-12-12T08:20:15.834Z,18.27
2022-12-12T08:25:20.924Z,18.07
2022-12-12T08:30:23.742Z,16.55
2022-12-12T08:35:26.594Z,17.48
2022-12-12T08:40:31.394Z,18.20
2022-12-12T08:45:35.021Z,16.95
2022-12-12T08:50:41.889Z,16.45
2022-12-12T08:55:46.042Z,24.77
2022-12-12T09:00:48.760Z,16.92
2022-12-12T09:05:55.080Z,16.38
2022-12-12T09:10:59.526Z,18.08
2022-12-12T09:16:02.360Z,18.80
2022-12-12T09:21:06.516Z,16.33
2022-12-12T09:26:11.933Z,17.05
2022-12-12T09:31:14.937Z,15.90
2022-12-12T09:36:18.248Z,19.83
2022-12-12T09:41:27.983Z,15.68
2022-12-12T09:46:39.681Z,16.30
2022-12-12T09:51:45.654Z,16.25
2022-12-12T09:57:20.925Z,17.02
2022-12-12T10:02:38.363Z,16.83
2022-12-12T10:07:48.168Z,13.55
2022-12-12T10:12:53.987Z,14.80
2022-12-12T10:17:59.024Z,13.23
2022-12-12T10:23:07.111Z,13.73
2022-12-12T10:28:14.898Z,15.88
2022-12-12T10:33:26.712Z,18.92
2022-12-12T10:38:42.489Z,13.70
2022-12-12T10:43:54.557Z,15.20
2022-12-12T10:48:58.026Z,15.05
2022-12-12T10:54:00.931Z,13.70
2022-12-12T10:59:05.200Z,16.10
2022-12-12T11:04:07.955Z,15.65
2022-12-12T11:09:19.333Z,13.02
2022-12-12T11:14:29.082Z,13.68
2022-12-12T11:19:40.029Z,14.63
2022-12-12T11:24:46.373Z,13.82
2022-12-12T11:29:53.643Z,14.80
2022-12-12T11:34:59.985Z,14.13
2022-12-12T11:40:03.596Z,14.35
2022-12-12T11:45:25.036Z,13.40
2022-12-12T11:50:30.937Z,13.07
2022-12-12T11:55:40.613Z,12.00
2022-12-12T12:00:52.039Z,11.93
2022-12-12T12:06:09.156Z,11.88
2022-12-12T12:11:20.902Z,12.32
2022-12-12T12:16:35.883Z,13.43
2022-12-12T12:21:50.601Z,23.50
2022-12-12T12:27:03.648Z,28.33
2022-12-12T12:32:18.181Z,13.82
2022-12-12T12:37:33.603Z,13.70
2022-12-12T12:42:51.601Z,12.68
2022-12-12T12:48:07.238Z,11.10
2022-12-12T12:53:26.030Z,13.98
2022-12-12T12:58:34.521Z,17.63
2022-12-12T13:03:47.033Z,12.95
2022-12-12T13:08:57.447Z,12.40
2022-12-12T13:14:10.745Z,12.73
2022-12-12T13:19:23.448Z,13.90
2022-12-12T13:24:33.492Z,13.23
2022-12-12T13:29:44.656Z,13.35
2022-12-12T13:34:54.017Z,11.15
2022-12-12T13:40:01.496Z,12.55
2022-12-12T13:45:37.541Z,11.98
2022-12-12T13:50:41.820Z,14.32
2022-12-12T13:55:44.728Z,13.65
2022-12-12T14:00:49.124Z,15.45
2022-12-12T14:05:55.030Z,13.88
2022-12-12T14:11:02.095Z,14.70
2022-12-12T14:16:08.704Z,13.68
2022-12-12T14:21:15.312Z,15.07
2022-12-12T14:26:50.227Z,15.15
2022-12-12T14:32:04.946Z,15.27
2022-12-12T14:37:36.122Z,14.68
2022-12-12T14:43:15.455Z,16.35
2022-12-12T14:48:22.693Z,14.93
2022-12-12T14:53:31.894Z,16.10
2022-12-12T14:58:37.836Z,21.35
2022-12-12T15:03:45.648Z,19.73
2022-12-12T15:08:50.756Z,20.13
2022-12-12T15:13:55.909Z,16.33
2022-12-12T15:19:00.770Z,19.30
2022-12-12T15:24:05.733Z,18.33
2022-12-12T15:29:09.117Z,20.65
2022-12-12T15:34:40.937Z,18.30
2022-12-12T15:39:45.217Z,18.73
2022-12-12T15:44:53.069Z,24.00
2022-12-12T15:49:55.998Z,29.38
2022-12-12T15:55:05.035Z,55.95
2022-12-12T16:00:10.172Z,41.13
2022-12-12T16:05:25.807Z,35.50
2022-12-12T16:10:30.017Z,29.40
2022-12-12T16:15:36.263Z,24.50
2022-12-12T16:20:46.157Z,21.40
2022-12-12T16:25:50.858Z,19.98
2022-12-12T16:30:56.457Z,22.30
2022-12-12T16:36:01.499Z,23.92
2022-12-12T16:41:08.516Z,26.67
2022-12-12T16:46:18.018Z,25.00
2022-12-12T16:51:27.536Z,25.67
2022-12-12T16:56:32.326Z,27.85
2022-12-12T17:01:38.771Z,30.55
2022-12-12T17:06:41.889Z,30.63
2022-12-12T17:11:45.977Z,32.38
2022-12-12T17:16:48.890Z,33.40
2022-12-12T17:21:51.905Z,35.55
2022-12-12T17:26:56.968Z,36.05
2022-12-12T17:32:00.630Z,32.45
2022-12-12T17:37:03.621Z,30.20
2022-12-12T17:42:07.850Z,31.33
2022-12-12T17:47:10.686Z,29.77
2022-12-12T17:52:13.528Z,30.05
2022-12-12T17:57:21.727Z,30.52
2022-12-12T18:02:28.007Z,29.55
2022-12-12T18:07:31.222Z,30.88
2022-12-12T18:12:35.281Z,31.75
2022-12-12T18:17:38.262Z,31.02
2022-12-12T18:22:41.082Z,26.05
2022-12-12T18:27:45.303Z,30.88
2022-12-12T18:32:48.167Z,37.33
2022-12-12T18:37:51.070Z,32.35
2022-12-12T18:42:55.240Z,40.58
2022-12-12T18:47:58.595Z,38.13
2022-12-12T18:53:01.413Z,34.47
2022-12-12T18:58:05.645Z,31.92
2022-12-12T19:03:08.941Z,34.67
2022-12-12T19:08:15.394Z,37.63
2022-12-12T19:13:19.593Z,34.63
2022-12-12T19:18:22.715Z,35.08
2022-12-12T19:23:25.570Z,34.33
2022-12-12T19:28:30.908Z,36.20
2022-12-12T19:33:33.729Z,33.05
2022-12-12T19:38:36.660Z,33.70
2022-12-12T19:43:41.656Z,36.28
2022-12-12T19:48:45.624Z,34.90
2022-12-12T19:53:50.126Z,33.35
2022-12-12T19:58:54.555Z,31.55
2022-12-12T20:03:59.293Z,30.38
2022-12-12T20:09:02.289Z,29.48
2022-12-12T20:14:07.529Z,29.85
2022-12-12T20:19:11.485Z,31.42
2022-12-12T20:24:15.477Z,32.35
2022-12-12T20:29:19.763Z,30.38
2022-12-12T20:34:24.519Z,31.75
2022-12-12T20:39:28.350Z,31.27
2022-12-12T20:44:32.596Z,35.20
2022-12-12T20:49:35.500Z,33.85
2022-12-12T20:54:38.304Z,35.85
2022-12-12T20:59:42.483Z,33.67
2022-12-12T21:04:45.339Z,34.88
2022-12-12T21:09:48.160Z,31.50
2022-12-12T21:14:52.305Z,31.08
2022-12-12T21:19:55.023Z,32.58
2022-12-12T21:24:57.807Z,33.13
2022-12-12T21:30:02.045Z,34.70
2022-12-12T21:35:05.674Z,34.13
2022-12-12T21:40:10.121Z,34.13
2022-12-12T21:45:16.174Z,33.67
2022-12-12T21:50:19.416Z,31.95
2022-12-12T21:55:22.145Z,32.55
2022-12-12T22:00:28.362Z,37.10
2022-12-12T22:05:31.077Z,36.58
2022-12-12T22:10:37.444Z,37.88
2022-12-12T22:15:41.642Z,34.40
2022-12-12T22:20:44.846Z,34.05
2022-12-12T22:25:47.640Z,37.22
2022-12-12T22:30:51.781Z,33.40
2022-12-12T22:35:54.685Z,33.15
2022-12-12T22:40:57.709Z,34.80
2022-12-12T22:46:06.407Z,34.97
2022-12-12T22:51:14.412Z,34.53
2022-12-12T22:56:17.997Z,32.85
2022-12-12T23:01:24.268Z,31.35
2022-12-12T23:06:29.895Z,37.95
2022-12-12T23:11:34.277Z,35.55
2022-12-12T23:16:38.558Z,32.30
2022-12-12T23:21:41.312Z,33.67
2022-12-12T23:26:44.805Z,31.55
2022-12-12T23:31:49.072Z,30.75
2022-12-12T23:36:52.560Z,34.72
2022-12-12T23:41:55.809Z,33.00
2022-12-12T23:46:59.988Z,32.53
2022-12-12T23:52:03.200Z,32.85
2022-12-12T23:57:05.933Z,30.27
